Flugplatz Dresden

Bericht für EDDC

vom 31.05. um 08:50 UTC

Wind 8 kt aus 320°

Sichtweite 10 km oder mehr

aufgelockert bewölkt in 2000 ft

Temperatur 13.0°C

Taupunkt 8.0°C

Luftfeuchtigkeit 72%

Luftdruck 1021 hPa

keine wesentliche Wetteränderung innerhalb den nächsten 2 Stunden zu erwarten

EDDC 310850Z 32008KT 270V350 9999 SCT020 13/08 Q1021 NOSIG

Prognose für EDDC

vom 31.05. um 05:00 UTC

Zwischen 06:00 UTC und 07:00 UTC

Wind 5 kt aus 320°

Sichtweite 10 km oder mehr

keine signifikanten Wettererscheinungen

keine Wolken


Zwischen 07:00 und 09:00 UTC übergehend zu

Wind 10 kt aus 330°

Sichtweite 10 km oder mehr

keine signifikanten Wettererscheinungen

keine Wolken


Zwischen 17:00 und 19:00 UTC übergehend zu

Wind 4 kt aus 350°

Sichtweite 10 km oder mehr

keine signifikanten Wettererscheinungen

keine Wolken

TAF EDDC 310500Z 3106/0106 32005KT CAVOK BECMG 3107/3109 33010KT BECMG 3117/3119 35004KT
Impressum